KKLS/KLS METAR and TAF weather

Enter ICAO airport designator
Station Type Date Time Source
KKLS METAR 2018/12/19 09:56 UTC NOAA

KKLS 190956Z AUTO 12005KT 10SM SCT044 08/06 A3024 RMK AO2 SLP246 T00780061


Station Type Date Time Source
KKLS Decoded METAR 2018/12/19 09:56 UTC NOAA

Kelso, Kelso-Longview Airport, WA, United States (KKLS) 46-07N 122-54W
Dec 19, 2018 - 04:56 AM EST / 2018.12.19 0956 UTC
Wind: from the ESE (120 degrees) at 6 MPH (5 KT):0
Visibility: 10 mile(s):0
Sky conditions: partly cloudy
Temperature: 46.0 F (7.8 C)
Dew Point: 43.0 F (6.1 C)
Relative Humidity: 88%
Pressure (altimeter): 30.24 in. Hg (1024 hPa)
ob: KKLS 190956Z AUTO 12005KT 10SM SCT044 08/06 A3024 RMK AO2 SLP246 T00780061
cycle: 10

Station Type Date Time Source
KKLS TAF UTC NOAA

Error!


Example: see airport list